Time;durP1;ratioP1;P1;durP2;ratioP2;P2;SDS_P1;SDS_P2;PMS_P1;PMS_P2;Temp;Humidity;BMP_temperature;BMP_pressure;BME280_temperature;BME280_humidity;BME280_pressure;Samples;Min_cycle;Max_cycle;Signal;HPM_P1;HPM_P2
2023/01/16 00:01:39;;;;;;;11.05;5.43;;;;;;;;;;4969846;28;20051;-75
2023/01/16 00:04:06;;;;;;;8.90;5.07;;;;;;;;;;4964835;28;20051;-75
2023/01/16 00:06:35;;;;;;;10.98;5.30;;;;;;;;;;4966175;28;20145;-74
2023/01/16 00:09:02;;;;;;;12.15;5.30;;;;;;;;;;4965160;28;20055;-74
2023/01/16 00:11:31;;;;;;;10.18;4.50;;;;;;;;;;4967452;28;20086;-75
2023/01/16 00:13:58;;;;;;;7.88;4.47;;;;;;;;;;4967325;28;20059;-75
2023/01/16 00:16:26;;;;;;;8.75;4.20;;;;;;;;;;4964848;28;20055;-75
2023/01/16 00:18:53;;;;;;;10.00;4.65;;;;;;;;;;4964986;28;20054;-74
2023/01/16 00:21:24;;;;;;;9.43;4.97;;;;;;;;;;4963982;28;20055;-75
2023/01/16 00:23:51;;;;;;;7.85;4.30;;;;;;;;;;4967448;28;20165;-74
2023/01/16 00:26:18;;;;;;;8.98;4.97;;;;;;;;;;4963658;28;20055;-74
2023/01/16 00:28:47;;;;;;;8.35;4.75;;;;;;;;;;4968476;28;20039;-74
2023/01/16 00:31:14;;;;;;;9.63;4.55;;;;;;;;;;4964631;28;20062;-75
2023/01/16 00:33:42;;;;;;;12.50;5.25;;;;;;;;;;4965352;28;20055;-74
2023/01/16 00:36:10;;;;;;;10.25;5.43;;;;;;;;;;4963652;28;20078;-74
2023/01/16 00:38:37;;;;;;;12.68;5.85;;;;;;;;;;4967162;28;20054;-74
2023/01/16 00:41:04;;;;;;;8.85;5.65;;;;;;;;;;4963523;28;20050;-74
2023/01/16 00:43:31;;;;;;;9.40;6.18;;;;;;;;;;4966543;28;20054;-73
2023/01/16 00:46:00;;;;;;;12.27;6.47;;;;;;;;;;4969492;28;20406;-75
2023/01/16 00:48:27;;;;;;;11.20;5.55;;;;;;;;;;4968331;28;20074;-74
2023/01/16 00:50:55;;;;;;;10.68;5.63;;;;;;;;;;4966523;28;20070;-74
2023/01/16 00:53:22;;;;;;;11.35;5.63;;;;;;;;;;4968442;28;20054;-75
2023/01/16 00:55:49;;;;;;;9.00;5.80;;;;;;;;;;4969211;28;20445;-74
2023/01/16 00:58:16;;;;;;;13.23;5.63;;;;;;;;;;4963932;28;20043;-75
2023/01/16 01:00:43;;;;;;;11.65;5.68;;;;;;;;;;4962578;28;20050;-75
2023/01/16 01:03:12;;;;;;;11.43;6.35;;;;;;;;;;4963964;28;20743;-75
2023/01/16 01:05:40;;;;;;;12.05;6.30;;;;;;;;;;4965393;28;20061;-73
2023/01/16 01:08:07;;;;;;;12.40;6.47;;;;;;;;;;4967117;28;20518;-74
2023/01/16 01:10:36;;;;;;;12.70;6.00;;;;;;;;;;4966485;28;20409;-75
2023/01/16 01:13:04;;;;;;;9.07;5.82;;;;;;;;;;4963984;28;20430;-75
2023/01/16 01:15:31;;;;;;;8.25;5.90;;;;;;;;;;4932604;29;20403;-74
2023/01/16 01:17:58;;;;;;;12.57;6.47;;;;;;;;;;4933828;29;20057;-75
2023/01/16 01:20:27;;;;;;;18.45;7.40;;;;;;;;;;4938090;29;20055;-75
2023/01/16 01:22:54;;;;;;;12.82;6.55;;;;;;;;;;4936235;29;20055;-74
2023/01/16 01:25:21;;;;;;;11.65;6.63;;;;;;;;;;4950355;28;20080;-74
2023/01/16 01:27:49;;;;;;;15.18;6.90;;;;;;;;;;4937507;29;20082;-73
2023/01/16 01:30:16;;;;;;;11.98;6.65;;;;;;;;;;4936475;29;20043;-75
2023/01/16 01:32:43;;;;;;;10.10;6.70;;;;;;;;;;4937523;29;20055;-75
2023/01/16 01:35:12;;;;;;;12.05;6.47;;;;;;;;;;4934994;29;20059;-75
2023/01/16 01:37:40;;;;;;;13.30;7.00;;;;;;;;;;4936175;28;20059;-74
2023/01/16 01:40:08;;;;;;;13.05;8.55;;;;;;;;;;4926496;29;20484;-75
2023/01/16 01:42:51;;;;;;;17.60;8.23;;;;;;;;;;4934333;29;20055;-74
2023/01/16 01:45:20;;;;;;;16.85;9.40;;;;;;;;;;4934386;29;20055;-74
2023/01/16 01:47:51;;;;;;;17.45;9.30;;;;;;;;;;4938103;29;20138;-74
2023/01/16 01:50:23;;;;;;;17.90;9.57;;;;;;;;;;4933497;29;20380;-74
2023/01/16 01:52:52;;;;;;;12.85;8.38;;;;;;;;;;4938554;29;20062;-74
2023/01/16 01:55:20;;;;;;;15.90;8.95;;;;;;;;;;4951363;29;20070;-74
2023/01/16 01:57:49;;;;;;;20.02;9.63;;;;;;;;;;4933687;29;20379;-75
2023/01/16 02:00:18;;;;;;;16.45;9.55;;;;;;;;;;4932906;29;20517;-74
2023/01/16 02:02:48;;;;;;;16.10;9.52;;;;;;;;;;4937243;29;20511;-74
2023/01/16 02:05:19;;;;;;;19.60;9.15;;;;;;;;;;4935609;29;20063;-74
2023/01/16 02:07:46;;;;;;;18.80;9.07;;;;;;;;;;4936659;29;20061;-74
2023/01/16 02:10:20;;;;;;;17.52;9.13;;;;;;;;;;4933866;29;20062;-74
2023/01/16 02:12:47;;;;;;;20.15;8.57;;;;;;;;;;4929168;29;20051;-74
2023/01/16 02:15:14;;;;;;;13.18;7.43;;;;;;;;;;4936148;29;20078;-75
2023/01/16 02:20:30;;;;;;;14.73;7.28;;;;;;;;;;4934800;29;20047;-74
2023/01/16 02:23:09;;;;;;;20.67;7.90;;;;;;;;;;4932402;29;20406;-75
2023/01/16 02:25:56;;;;;;;19.15;8.43;;;;;;;;;;4935040;29;20047;-74
2023/01/16 02:28:38;;;;;;;15.43;7.93;;;;;;;;;;4934266;29;20063;-74
2023/01/16 02:31:11;;;;;;;15.60;7.15;;;;;;;;;;4939121;29;20055;-75
2023/01/16 02:33:44;;;;;;;12.57;7.15;;;;;;;;;;4935752;29;20654;-74
2023/01/16 02:36:14;;;;;;;16.15;6.88;;;;;;;;;;4933847;29;20545;-74
2023/01/16 02:38:47;;;;;;;14.50;6.85;;;;;;;;;;4932300;29;20055;-75
2023/01/16 02:41:14;;;;;;;;;;;;;;;;;;4931001;29;20047;-74
2023/01/16 02:43:47;;;;;;;15.90;6.35;;;;;;;;;;4929537;29;20297;-74
2023/01/16 02:46:20;;;;;;;16.70;7.57;;;;;;;;;;4935248;29;20051;-74
2023/01/16 02:48:50;;;;;;;11.13;7.03;;;;;;;;;;4932327;29;20047;-74
2023/01/16 02:51:22;;;;;;;14.38;6.45;;;;;;;;;;4951809;29;20303;-73
2023/01/16 02:53:52;;;;;;;17.70;7.38;;;;;;;;;;4950138;29;20043;-74
2023/01/16 02:56:21;;;;;;;15.98;6.35;;;;;;;;;;4932981;29;20083;-74
2023/01/16 02:58:50;;;;;;;18.85;6.57;;;;;;;;;;4934228;29;20043;-74
2023/01/16 03:01:20;;;;;;;12.82;6.25;;;;;;;;;;4929842;29;20051;-74
2023/01/16 03:03:51;;;;;;;19.30;6.60;;;;;;;;;;4931294;29;20050;-74
2023/01/16 03:06:36;;;;;;;16.27;6.03;;;;;;;;;;4935650;29;20693;-73
2023/01/16 03:09:16;;;;;;;13.50;5.80;;;;;;;;;;4949553;29;20525;-74
2023/01/16 03:11:47;;;;;;;10.95;6.07;;;;;;;;;;4932594;29;20058;-74
2023/01/16 03:14:27;;;;;;;11.93;5.60;;;;;;;;;;4961774;28;20506;-74
2023/01/16 03:17:05;;;;;;;12.05;6.00;;;;;;;;;;4968977;28;20050;-74
2023/01/16 03:19:42;;;;;;;13.63;5.38;;;;;;;;;;4968630;28;20051;-74
2023/01/16 03:22:12;;;;;;;14.93;5.82;;;;;;;;;;4970346;28;20055;-74
2023/01/16 03:24:45;;;;;;;11.32;5.55;;;;;;;;;;4965363;28;20054;-74
2023/01/16 03:27:18;;;;;;;13.18;6.00;;;;;;;;;;4971048;28;20058;-74
2023/01/16 03:29:50;;;;;;;16.23;6.45;;;;;;;;;;4965404;28;20051;-74
2023/01/16 03:32:23;;;;;;;12.05;6.32;;;;;;;;;;4971060;28;20054;-74
2023/01/16 03:34:53;;;;;;;14.68;6.53;;;;;;;;;;4966213;28;20065;-74
2023/01/16 03:37:23;;;;;;;21.05;6.68;;;;;;;;;;4966712;28;20546;-74
2023/01/16 03:39:53;;;;;;;11.05;6.30;;;;;;;;;;4969650;28;20047;-74
2023/01/16 03:42:23;;;;;;;18.20;6.95;;;;;;;;;;4968743;28;20512;-73
2023/01/16 03:44:53;;;;;;;15.88;6.32;;;;;;;;;;4968682;28;20101;-74
2023/01/16 03:47:24;;;;;;;18.25;7.10;;;;;;;;;;4966410;28;20062;-74
2023/01/16 03:49:55;;;;;;;13.73;6.82;;;;;;;;;;4975748;28;20050;-74
2023/01/16 03:52:24;;;;;;;17.38;7.88;;;;;;;;;;4965638;28;20078;-74
2023/01/16 03:54:54;;;;;;;13.07;7.22;;;;;;;;;;4965861;28;20051;-73
2023/01/16 03:57:23;;;;;;;16.90;7.63;;;;;;;;;;4965666;28;20051;-73
2023/01/16 03:59:51;;;;;;;14.60;7.18;;;;;;;;;;4964834;28;20413;-73
2023/01/16 04:02:20;;;;;;;13.10;7.72;;;;;;;;;;4968269;28;20047;-74
2023/01/16 04:04:51;;;;;;;21.38;7.97;;;;;;;;;;4960960;28;20046;-74
2023/01/16 04:07:21;;;;;;;19.88;8.07;;;;;;;;;;4969879;28;20557;-74
2023/01/16 04:09:51;;;;;;;22.05;9.10;;;;;;;;;;4966659;28;20493;-74
2023/01/16 04:12:21;;;;;;;17.60;8.75;;;;;;;;;;4966616;28;20051;-74
2023/01/16 04:14:49;;;;;;;23.88;9.90;;;;;;;;;;4969005;28;20568;-74
2023/01/16 04:17:16;;;;;;;18.42;9.35;;;;;;;;;;4959426;28;20061;-74
2023/01/16 04:19:44;;;;;;;16.30;9.40;;;;;;;;;;4968648;28;20291;-74
2023/01/16 04:22:19;;;;;;;15.73;9.02;;;;;;;;;;4969354;28;20051;-75
2023/01/16 04:24:47;;;;;;;20.85;9.43;;;;;;;;;;4968790;28;20059;-74
2023/01/16 04:27:15;;;;;;;16.63;8.85;;;;;;;;;;4969810;28;20077;-74
2023/01/16 04:29:42;;;;;;;18.92;10.35;;;;;;;;;;4962625;28;20055;-73
2023/01/16 04:32:09;;;;;;;22.30;11.20;;;;;;;;;;4968697;28;20051;-74
2023/01/16 04:34:36;;;;;;;19.75;10.45;;;;;;;;;;4957959;28;20064;-73
2023/01/16 04:37:04;;;;;;;22.27;10.30;;;;;;;;;;4964276;28;20502;-74
2023/01/16 04:39:33;;;;;;;19.55;11.48;;;;;;;;;;4965040;28;20051;-74
2023/01/16 04:42:00;;;;;;;22.20;11.13;;;;;;;;;;4964712;28;20054;-74
2023/01/16 04:44:27;;;;;;;24.05;11.15;;;;;;;;;;4968254;28;20055;-74
2023/01/16 04:46:54;;;;;;;21.25;11.43;;;;;;;;;;4964162;28;20055;-74
2023/01/16 04:49:22;;;;;;;22.05;11.35;;;;;;;;;;4966857;28;20051;-73
2023/01/16 04:51:49;;;;;;;24.27;12.25;;;;;;;;;;4968199;28;20379;-75
2023/01/16 04:54:17;;;;;;;24.88;11.77;;;;;;;;;;4967121;28;20422;-74
2023/01/16 04:56:46;;;;;;;22.13;12.25;;;;;;;;;;4969803;28;20603;-73
2023/01/16 04:59:13;;;;;;;22.20;11.75;;;;;;;;;;4964457;28;20062;-74
2023/01/16 05:01:40;;;;;;;21.48;12.25;;;;;;;;;;4965940;28;20078;-74
2023/01/16 05:04:08;;;;;;;25.15;13.02;;;;;;;;;;4963543;28;20093;-73
2023/01/16 05:06:36;;;;;;;27.17;12.05;;;;;;;;;;4962667;28;20458;-74
2023/01/16 05:09:04;;;;;;;24.38;11.70;;;;;;;;;;4962493;28;20051;-74
2023/01/16 05:11:32;;;;;;;23.50;11.85;;;;;;;;;;4962352;28;20054;-74
2023/01/16 05:14:00;;;;;;;28.13;12.75;;;;;;;;;;4968913;28;20050;-73
2023/01/16 05:16:28;;;;;;;31.13;13.70;;;;;;;;;;4965266;28;20054;-74
2023/01/16 05:18:56;;;;;;;32.00;14.15;;;;;;;;;;4962930;28;20047;-74
2023/01/16 05:21:23;;;;;;;31.67;13.95;;;;;;;;;;4966154;28;20055;-74
2023/01/16 05:23:50;;;;;;;29.20;13.70;;;;;;;;;;4969198;28;20063;-74
2023/01/16 05:26:17;;;;;;;27.35;13.15;;;;;;;;;;4964383;28;20422;-74
2023/01/16 05:28:45;;;;;;;29.63;12.77;;;;;;;;;;4967483;28;20047;-74
2023/01/16 05:31:13;;;;;;;23.55;12.45;;;;;;;;;;4966478;28;20676;-74
2023/01/16 05:33:40;;;;;;;23.50;12.95;;;;;;;;;;4965814;28;20139;-74
2023/01/16 05:36:08;;;;;;;26.50;13.32;;;;;;;;;;4966145;28;20051;-74
2023/01/16 05:38:35;;;;;;;24.73;13.35;;;;;;;;;;4968833;28;20054;-74
2023/01/16 05:41:03;;;;;;;29.75;14.05;;;;;;;;;;4967794;28;20131;-74
2023/01/16 05:43:30;;;;;;;33.30;14.52;;;;;;;;;;4966788;28;20138;-74
2023/01/16 05:45:57;;;;;;;30.48;14.38;;;;;;;;;;4966448;28;20055;-73
2023/01/16 05:48:28;;;;;;;25.92;14.88;;;;;;;;;;4963885;28;20047;-73
2023/01/16 05:50:55;;;;;;;29.92;13.88;;;;;;;;;;4967598;28;20097;-73
2023/01/16 05:53:22;;;;;;;31.30;15.15;;;;;;;;;;4962506;28;20053;-73
2023/01/16 05:55:49;;;;;;;34.55;15.95;;;;;;;;;;4979957;28;20102;-74
2023/01/16 05:58:17;;;;;;;36.13;15.07;;;;;;;;;;4963812;28;20059;-74
2023/01/16 06:00:44;;;;;;;31.55;14.98;;;;;;;;;;4965046;28;20055;-73
2023/01/16 06:03:12;;;;;;;24.40;15.10;;;;;;;;;;4962214;28;20054;-73
2023/01/16 06:05:40;;;;;;;29.65;15.63;;;;;;;;;;4964642;28;20506;-74
2023/01/16 06:08:08;;;;;;;32.53;15.23;;;;;;;;;;4960525;28;20061;-73
2023/01/16 06:10:35;;;;;;;30.23;15.73;;;;;;;;;;4963539;28;20046;-74
2023/01/16 06:13:03;;;;;;;29.63;15.73;;;;;;;;;;4965618;28;20051;-74
2023/01/16 06:15:30;;;;;;;30.15;15.98;;;;;;;;;;4967050;28;20069;-73
2023/01/16 06:17:57;;;;;;;36.95;16.05;;;;;;;;;;4963775;28;20063;-73
2023/01/16 06:20:24;;;;;;;35.03;17.00;;;;;;;;;;4965895;28;20498;-73
2023/01/16 06:22:53;;;;;;;25.60;16.10;;;;;;;;;;4969502;28;20054;-73
2023/01/16 06:25:20;;;;;;;39.58;16.00;;;;;;;;;;4970078;28;20066;-73
2023/01/16 06:27:51;;;;;;;30.95;16.40;;;;;;;;;;4965790;28;20071;-73
2023/01/16 06:30:19;;;;;;;29.70;15.23;;;;;;;;;;4967801;28;20070;-73
2023/01/16 06:32:49;;;;;;;31.58;14.63;;;;;;;;;;4968362;28;20062;-73
2023/01/16 06:35:16;;;;;;;27.92;12.98;;;;;;;;;;4969892;28;20125;-74
2023/01/16 06:37:43;;;;;;;28.35;13.68;;;;;;;;;;4970001;28;20194;-73
2023/01/16 06:40:12;;;;;;;29.48;14.60;;;;;;;;;;4964954;28;20051;-74
2023/01/16 06:42:39;;;;;;;28.42;14.00;;;;;;;;;;4962414;28;20123;-73
2023/01/16 06:45:07;;;;;;;31.02;15.48;;;;;;;;;;4970448;28;20059;-74
2023/01/16 06:47:34;;;;;;;28.45;15.38;;;;;;;;;;4968832;28;20402;-73
2023/01/16 06:50:01;;;;;;;33.20;15.85;;;;;;;;;;4969588;28;20061;-73
2023/01/16 06:52:29;;;;;;;24.92;15.15;;;;;;;;;;4967874;28;20494;-74
2023/01/16 06:54:56;;;;;;;32.72;15.18;;;;;;;;;;4970355;28;20061;-74
2023/01/16 06:57:25;;;;;;;33.60;15.18;;;;;;;;;;4969872;28;20062;-74
2023/01/16 06:59:52;;;;;;;33.17;14.95;;;;;;;;;;4968405;28;20062;-76
2023/01/16 07:02:19;;;;;;;32.40;14.70;;;;;;;;;;4967661;28;20047;-74
2023/01/16 07:04:47;;;;;;;35.92;14.93;;;;;;;;;;4968037;28;20136;-73
2023/01/16 07:07:14;;;;;;;30.92;15.02;;;;;;;;;;4967791;28;20054;-74
2023/01/16 07:09:41;;;;;;;28.40;14.85;;;;;;;;;;4968046;28;20054;-73
2023/01/16 07:12:08;;;;;;;30.08;14.43;;;;;;;;;;4969025;28;20513;-74
2023/01/16 07:22:53;;;;;;;32.20;15.18;;;;;;;;;;4967864;28;20054;-74
2023/01/16 07:25:22;;;;;;;30.70;14.73;;;;;;;;;;4973492;28;20057;-74
2023/01/16 07:27:50;;;;;;;31.02;14.73;;;;;;;;;;4967046;28;21785;-74
2023/01/16 07:30:19;;;;;;;28.55;14.35;;;;;;;;;;4972454;28;20051;-74
2023/01/16 07:32:47;;;;;;;31.20;14.32;;;;;;;;;;4968843;28;20054;-74
2023/01/16 07:35:14;;;;;;;30.92;14.10;;;;;;;;;;4964863;28;20065;-74
2023/01/16 07:37:42;;;;;;;26.52;13.55;;;;;;;;;;4966678;28;20054;-74
2023/01/16 07:40:10;;;;;;;34.20;15.35;;;;;;;;;;4962792;28;20417;-74
2023/01/16 07:42:37;;;;;;;32.80;13.57;;;;;;;;;;4966437;28;20054;-73
2023/01/16 07:45:05;;;;;;;30.92;13.57;;;;;;;;;;4970333;28;20508;-74
2023/01/16 07:47:34;;;;;;;24.75;13.48;;;;;;;;;;4964432;28;20061;-74
2023/01/16 07:50:01;;;;;;;20.20;11.80;;;;;;;;;;4969382;28;20076;-74
2023/01/16 07:52:29;;;;;;;29.17;12.80;;;;;;;;;;4968877;28;20062;-73
2023/01/16 07:54:56;;;;;;;26.63;10.98;;;;;;;;;;4971031;28;20062;-74
2023/01/16 07:57:25;;;;;;;27.35;11.73;;;;;;;;;;4969519;28;20050;-74
2023/01/16 07:59:52;;;;;;;28.10;11.02;;;;;;;;;;4967065;28;20051;-73
2023/01/16 08:02:19;;;;;;;20.50;10.88;;;;;;;;;;4959477;28;20070;-74
2023/01/16 08:04:48;;;;;;;24.65;10.63;;;;;;;;;;4967130;28;20059;-74
2023/01/16 08:07:15;;;;;;;24.35;10.00;;;;;;;;;;4965791;28;20051;-74
2023/01/16 08:09:42;;;;;;;17.95;9.48;;;;;;;;;;4960506;28;20402;-74
2023/01/16 08:12:09;;;;;;;24.00;10.05;;;;;;;;;;4969567;28;20047;-74
2023/01/16 08:14:38;;;;;;;23.77;9.07;;;;;;;;;;4966616;28;20065;-74
2023/01/16 08:17:06;;;;;;;22.95;9.55;;;;;;;;;;4967826;28;20050;-74
2023/01/16 08:19:33;;;;;;;19.27;8.45;;;;;;;;;;4967464;28;20455;-74
2023/01/16 08:22:02;;;;;;;16.17;7.55;;;;;;;;;;4966755;28;20047;-74
2023/01/16 08:24:29;;;;;;;14.45;7.55;;;;;;;;;;4968223;28;20059;-73
2023/01/16 08:26:57;;;;;;;15.30;6.63;;;;;;;;;;4968900;28;20051;-73
2023/01/16 08:29:24;;;;;;;15.73;6.95;;;;;;;;;;4959807;28;20137;-74
2023/01/16 08:31:52;;;;;;;17.52;7.10;;;;;;;;;;4960850;28;20409;-74
2023/01/16 08:34:19;;;;;;;17.25;6.53;;;;;;;;;;4966015;28;20418;-74
2023/01/16 08:36:46;;;;;;;16.70;5.85;;;;;;;;;;4968236;28;20066;-74
2023/01/16 08:39:15;;;;;;;17.63;5.70;;;;;;;;;;4967152;28;20055;-74
2023/01/16 08:52:43;;;;;;;11.90;4.70;;;;;;;;;;4966832;28;20070;-73
2023/01/16 08:55:11;;;;;;;16.95;5.13;;;;;;;;;;4964155;28;20784;-74
2023/01/16 08:57:38;;;;;;;17.27;5.70;;;;;;;;;;4968893;28;20625;-74
2023/01/16 09:00:07;;;;;;;13.75;4.80;;;;;;;;;;4971830;28;20047;-74
2023/01/16 09:02:36;;;;;;;12.73;5.15;;;;;;;;;;4966920;28;20062;-73
2023/01/16 09:05:03;;;;;;;13.45;4.82;;;;;;;;;;4959836;28;20559;-74
2023/01/16 09:07:30;;;;;;;16.40;5.07;;;;;;;;;;4960524;28;20110;-74
2023/01/16 09:09:57;;;;;;;11.00;4.68;;;;;;;;;;4963251;28;20055;-74
2023/01/16 09:15:11;;;;;;;17.02;4.90;;;;;;;;;;4961660;28;20089;-73
2023/01/16 09:17:38;;;;;;;17.90;5.35;;;;;;;;;;4961585;28;20061;-74
2023/01/16 09:20:06;;;;;;;12.85;5.47;;;;;;;;;;4965689;28;20150;-74
2023/01/16 09:22:33;;;;;;;14.45;4.82;;;;;;;;;;4966668;28;20046;-73
2023/01/16 09:25:01;;;;;;;14.20;4.57;;;;;;;;;;4964326;28;20042;-74
2023/01/16 09:27:29;;;;;;;16.45;4.93;;;;;;;;;;4964547;28;20457;-74
2023/01/16 09:29:57;;;;;;;14.18;4.35;;;;;;;;;;4967904;28;20078;-73
2023/01/16 09:32:24;;;;;;;13.18;4.65;;;;;;;;;;4966131;28;20051;-74
2023/01/16 09:34:51;;;;;;;15.00;5.28;;;;;;;;;;4964854;28;20055;-73
2023/01/16 09:37:19;;;;;;;14.55;4.75;;;;;;;;;;4964388;28;20366;-73
2023/01/16 09:39:46;;;;;;;17.58;5.03;;;;;;;;;;4968526;28;20373;-74
2023/01/16 09:45:12;;;;;;;12.07;5.25;;;;;;;;;;4968094;28;20166;-74
2023/01/16 09:47:39;;;;;;;16.45;5.28;;;;;;;;;;4965576;28;20062;-74
2023/01/16 09:50:13;;;;;;;11.32;5.32;;;;;;;;;;4965243;28;20074;-74
2023/01/16 10:01:02;;;;;;;8.98;4.60;;;;;;;;;;4949907;28;20130;-73
2023/01/16 10:03:29;;;;;;;16.27;5.78;;;;;;;;;;4970936;28;20051;-73
2023/01/16 10:06:00;;;;;;;10.88;5.03;;;;;;;;;;4970260;28;20061;-73
2023/01/16 10:08:30;;;;;;;20.15;5.47;;;;;;;;;;4967074;28;20063;-73
2023/01/16 10:11:05;;;;;;;14.38;5.28;;;;;;;;;;4966490;28;20051;-74
2023/01/16 10:13:41;;;;;;;15.30;4.90;;;;;;;;;;4966676;28;20058;-74
2023/01/16 10:16:12;;;;;;;13.98;5.00;;;;;;;;;;4970962;28;20047;-73
2023/01/16 10:18:44;;;;;;;16.92;5.13;;;;;;;;;;4969763;28;20525;-74
2023/01/16 10:21:18;;;;;;;13.77;4.85;;;;;;;;;;4963967;28;20062;-73
2023/01/16 10:23:52;;;;;;;15.13;5.15;;;;;;;;;;4967971;28;20058;-74
2023/01/16 10:26:22;;;;;;;14.45;5.25;;;;;;;;;;4967970;28;20067;-73
2023/01/16 10:28:54;;;;;;;14.98;5.15;;;;;;;;;;4970313;28;20062;-74
2023/01/16 10:31:26;;;;;;;13.20;5.10;;;;;;;;;;4964388;28;20046;-73
2023/01/16 10:33:56;;;;;;;14.38;5.40;;;;;;;;;;4967198;28;20385;-73
2023/01/16 10:36:26;;;;;;;10.82;4.60;;;;;;;;;;4964630;28;20054;-73
2023/01/16 10:38:56;;;;;;;12.77;5.50;;;;;;;;;;4959959;28;20051;-73
2023/01/16 10:49:54;;;;;;;11.75;4.20;;;;;;;;;;4969302;28;20065;-73
2023/01/16 10:52:22;;;;;;;12.30;4.20;;;;;;;;;;4963747;28;20069;-73
2023/01/16 10:54:50;;;;;;;15.00;3.95;;;;;;;;;;4957827;28;20079;-73
2023/01/16 10:57:18;;;;;;;8.15;3.33;;;;;;;;;;4965473;28;20053;-73
2023/01/16 10:59:46;;;;;;;10.75;3.40;;;;;;;;;;4976318;28;20482;-73
2023/01/16 11:02:21;;;;;;;4.75;2.75;;;;;;;;;;4967771;28;20039;-73
2023/01/16 11:04:48;;;;;;;11.20;3.42;;;;;;;;;;4966329;28;20105;-74
2023/01/16 11:07:16;;;;;;;8.00;2.90;;;;;;;;;;4970810;28;20047;-73
2023/01/16 11:09:45;;;;;;;7.32;3.20;;;;;;;;;;4968408;28;20055;-74
2023/01/16 11:20:39;;;;;;;6.72;2.05;;;;;;;;;;4968238;28;20050;-74
2023/01/16 11:23:14;;;;;;;9.90;2.70;;;;;;;;;;4968803;28;20045;-74
2023/01/16 11:25:41;;;;;;;4.22;1.33;;;;;;;;;;4967070;28;20054;-74
2023/01/16 11:28:11;;;;;;;4.55;1.65;;;;;;;;;;4958430;28;20050;-73
2023/01/16 11:30:40;;;;;;;3.47;1.25;;;;;;;;;;4958484;28;20058;-74
2023/01/16 11:33:13;;;;;;;4.63;2.13;;;;;;;;;;4967434;28;20043;-74
2023/01/16 11:35:40;;;;;;;2.17;1.02;;;;;;;;;;4963621;28;20053;-73
2023/01/16 11:38:08;;;;;;;2.08;0.90;;;;;;;;;;4966166;28;20058;-74
2023/01/16 11:40:45;;;;;;;2.78;1.00;;;;;;;;;;4960662;28;20387;-74
2023/01/16 11:46:07;;;;;;;5.75;1.50;;;;;;;;;;4984864;28;20035;-74
2023/01/16 11:48:44;;;;;;;5.95;3.28;;;;;;;;;;4961553;28;20047;-74
2023/01/16 11:51:16;;;;;;;5.53;1.65;;;;;;;;;;4967211;28;20054;-74
2023/01/16 11:53:44;;;;;;;4.43;1.27;;;;;;;;;;4961421;28;20058;-74
2023/01/16 11:56:23;;;;;;;5.10;1.77;;;;;;;;;;4962589;28;20557;-74
2023/01/16 11:58:56;;;;;;;5.72;1.45;;;;;;;;;;4965085;28;20047;-75
2023/01/16 12:01:27;;;;;;;4.90;1.02;;;;;;;;;;4961081;28;20055;-74
2023/01/16 12:04:08;;;;;;;6.07;1.33;;;;;;;;;;4964531;28;20058;-74
2023/01/16 12:06:49;;;;;;;1.65;1.10;;;;;;;;;;4966439;28;20491;-74
2023/01/16 12:09:30;;;;;;;3.58;1.60;;;;;;;;;;4963862;28;20059;-74
2023/01/16 12:14:53;;;;;;;1.80;1.20;;;;;;;;;;4968541;28;20054;-73
2023/01/16 12:17:24;;;;;;;1.42;0.90;;;;;;;;;;4963485;28;20046;-75
2023/01/16 12:20:03;;;;;;;2.33;1.20;;;;;;;;;;4966715;28;20066;-75
2023/01/16 12:22:40;;;;;;;2.65;1.20;;;;;;;;;;4963910;28;20064;-75
2023/01/16 12:25:18;;;;;;;2.35;1.20;;;;;;;;;;4964860;28;20137;-74
2023/01/16 12:27:49;;;;;;;3.78;1.45;;;;;;;;;;4963092;28;20059;-74
2023/01/16 12:30:21;;;;;;;1.55;1.08;;;;;;;;;;4959381;28;20058;-75
2023/01/16 12:33:00;;;;;;;2.65;1.15;;;;;;;;;;4964310;28;20085;-75
2023/01/16 12:35:33;;;;;;;2.65;1.02;;;;;;;;;;4962454;28;20489;-74
2023/01/16 12:38:12;;;;;;;1.73;1.10;;;;;;;;;;4968434;28;20046;-74
2023/01/16 12:40:50;;;;;;;1.55;1.23;;;;;;;;;;4959650;28;20070;-75
2023/01/16 12:43:23;;;;;;;1.92;1.27;;;;;;;;;;4967777;28;20043;-75
2023/01/16 12:45:52;;;;;;;2.53;1.08;;;;;;;;;;4966873;28;20050;-75
2023/01/16 12:48:36;;;;;;;3.28;1.25;;;;;;;;;;4952403;28;20051;-75
2023/01/16 12:51:21;;;;;;;1.83;1.20;;;;;;;;;;4965909;28;20168;-75
2023/01/16 12:53:55;;;;;;;3.08;1.27;;;;;;;;;;4965384;28;20053;-74
2023/01/16 12:56:33;;;;;;;4.57;1.50;;;;;;;;;;4963888;28;20059;-74
2023/01/16 12:59:03;;;;;;;2.38;1.65;;;;;;;;;;4964146;28;20391;-75
2023/01/16 13:01:35;;;;;;;1.33;1.10;;;;;;;;;;4965758;28;20047;-75
2023/01/16 13:04:04;;;;;;;2.13;1.50;;;;;;;;;;4968755;28;20065;-74
2023/01/16 13:06:37;;;;;;;7.00;1.30;;;;;;;;;;4962881;28;20059;-74
2023/01/16 13:09:09;;;;;;;;;;;;;;;;;;4966574;28;20069;-74
2023/01/16 13:14:25;;;;;;;2.45;1.70;;;;;;;;;;4961117;28;20051;-76
2023/01/16 13:16:56;;;;;;;2.08;1.60;;;;;;;;;;4966448;28;20054;-73
2023/01/16 13:19:25;;;;;;;3.30;1.77;;;;;;;;;;4964700;28;20059;-73
2023/01/16 13:21:56;;;;;;;2.85;2.08;;;;;;;;;;4969675;28;20042;-72
2023/01/16 13:24:25;;;;;;;3.10;2.25;;;;;;;;;;4967561;28;20055;-74
2023/01/16 13:26:55;;;;;;;3.53;2.40;;;;;;;;;;4966405;28;20058;-74
2023/01/16 13:29:24;;;;;;;3.55;2.00;;;;;;;;;;4964798;28;20155;-72
2023/01/16 13:31:53;;;;;;;3.42;2.08;;;;;;;;;;4966691;28;20062;-73
2023/01/16 13:34:22;;;;;;;3.92;2.38;;;;;;;;;;4962365;28;20054;-73
2023/01/16 13:37:04;;;;;;;5.88;3.75;;;;;;;;;;4964325;28;20070;-73
2023/01/16 13:39:43;;;;;;;3.80;2.92;;;;;;;;;;4967053;28;20055;-73
2023/01/16 13:42:12;;;;;;;4.32;3.20;;;;;;;;;;4959469;28;20051;-72
2023/01/16 13:47:29;;;;;;;6.78;3.65;;;;;;;;;;4964815;28;20050;-72
2023/01/16 13:50:02;;;;;;;6.13;4.25;;;;;;;;;;4962948;28;20160;-72
2023/01/16 13:52:30;;;;;;;12.25;6.90;;;;;;;;;;4964587;28;20450;-73
2023/01/16 13:55:00;;;;;;;5.93;4.20;;;;;;;;;;4961960;28;20417;-72
2023/01/16 13:57:29;;;;;;;9.48;5.30;;;;;;;;;;4962223;28;20066;-73
2023/01/16 13:59:57;;;;;;;5.25;4.10;;;;;;;;;;4958134;28;20047;-72
2023/01/16 14:02:39;;;;;;;3.88;3.00;;;;;;;;;;4961347;28;20046;-73
2023/01/16 14:05:25;;;;;;;7.45;4.28;;;;;;;;;;4963810;28;20053;-73
2023/01/16 14:11:04;;;;;;;5.18;4.45;;;;;;;;;;4966514;28;20055;-74
2023/01/16 14:13:33;;;;;;;6.93;3.95;;;;;;;;;;4963155;28;20161;-73
2023/01/16 14:19:00;;;;;;;5.13;3.03;;;;;;;;;;4975187;28;20051;-74
2023/01/16 14:21:28;;;;;;;5.40;3.13;;;;;;;;;;4965265;28;20051;-73
2023/01/16 14:24:01;;;;;;;5.95;2.92;;;;;;;;;;4960096;28;20517;-74
2023/01/16 14:26:41;;;;;;;5.75;2.88;;;;;;;;;;4959340;28;20395;-74
2023/01/16 14:29:15;;;;;;;3.65;1.73;;;;;;;;;;4964499;28;20067;-73
2023/01/16 14:31:43;;;;;;;1.95;1.40;;;;;;;;;;4969795;28;20054;-74
2023/01/16 14:34:17;;;;;;;5.60;1.58;;;;;;;;;;4965762;28;21909;-74
2023/01/16 14:36:46;;;;;;;4.25;1.55;;;;;;;;;;4968734;28;20046;-75
2023/01/16 14:39:27;;;;;;;2.97;1.75;;;;;;;;;;4965120;28;20070;-74
2023/01/16 14:56:27;;;;;;;4.40;2.40;;;;;;;;;;4929502;28;20055;-73
2023/01/16 14:58:59;;;;;;;3.42;2.13;;;;;;;;;;4956329;28;20141;-75
2023/01/16 15:04:15;;;;;;;3.38;2.25;;;;;;;;;;4961305;28;20038;-74
2023/01/16 15:06:44;;;;;;;8.27;2.38;;;;;;;;;;4962743;28;20047;-74
2023/01/16 15:09:15;;;;;;;6.18;3.28;;;;;;;;;;4962590;28;20065;-74
2023/01/16 15:11:45;;;;;;;3.42;2.58;;;;;;;;;;4965373;28;20058;-74
2023/01/16 15:14:28;;;;;;;4.95;2.83;;;;;;;;;;4966115;28;20086;-73
2023/01/16 15:22:49;;;;;;;4.97;3.20;;;;;;;;;;4965617;28;20541;-74
2023/01/16 15:25:22;;;;;;;5.03;3.47;;;;;;;;;;4963663;28;20051;-74
2023/01/16 15:27:49;;;;;;;;;;;;;;;;;;4963096;28;20407;-74
2023/01/16 15:30:18;;;;;;;4.57;3.58;;;;;;;;;;4957982;28;20395;-74
2023/01/16 15:33:42;;;;;;;5.55;3.88;;;;;;;;;;4965068;28;20049;-74
2023/01/16 15:35:43;;;;;;;8.30;4.05;;;;;;;;;;4957581;28;20063;-74
2023/01/16 15:38:11;;;;;;;6.63;4.75;;;;;;;;;;4963605;28;20054;-74
2023/01/16 15:40:39;;;;;;;8.15;5.50;;;;;;;;;;4963110;28;20769;-74
2023/01/16 15:48:45;;;;;;;9.77;6.10;;;;;;;;;;4960815;28;20043;-73
2023/01/16 15:51:15;;;;;;;26.48;11.68;;;;;;;;;;4963294;28;20086;-73
2023/01/16 15:53:45;;;;;;;12.27;7.10;;;;;;;;;;4959389;28;20129;-74
2023/01/16 15:56:19;;;;;;;9.43;5.65;;;;;;;;;;4975707;28;20221;-74
2023/01/16 15:58:48;;;;;;;7.65;4.78;;;;;;;;;;4956834;28;20043;-74
2023/01/16 16:01:25;;;;;;;7.60;5.32;;;;;;;;;;4951757;28;20667;-74
2023/01/16 16:03:53;;;;;;;10.02;5.93;;;;;;;;;;4957449;28;20054;-74
2023/01/16 16:06:20;;;;;;;24.95;10.52;;;;;;;;;;4960638;28;20430;-74
2023/01/16 16:08:49;;;;;;;28.25;12.55;;;;;;;;;;4963201;28;20046;-74
2023/01/16 16:17:54;;;;;;;10.68;7.22;;;;;;;;;;4964819;28;20062;-74
2023/01/16 16:19:47;;;;;;;10.93;7.95;;;;;;;;;;4960229;28;20047;-74
2023/01/16 16:25:18;;;;;;;11.02;6.68;;;;;;;;;;4961211;28;20043;-74
2023/01/16 16:27:46;;;;;;;11.38;7.43;;;;;;;;;;4961309;28;20675;-74
2023/01/16 16:30:18;;;;;;;29.10;7.70;;;;;;;;;;4962623;28;20047;-74
2023/01/16 16:32:46;;;;;;;9.90;6.65;;;;;;;;;;4962126;28;20050;-74
2023/01/16 16:35:18;;;;;;;12.23;7.25;;;;;;;;;;4963230;28;20057;-74